sensor_id;sensor_type;location;lat;lon;timestamp;temperature;humidity
40868;DHT22;26586;50.708;22.412;2022-11-27T00:01:13;14.30;42.30
40868;DHT22;26586;50.708;22.412;2022-11-27T00:03:41;14.20;43.80
40868;DHT22;26586;50.708;22.412;2022-11-27T00:06:11;14.20;44.30
40868;DHT22;26586;50.708;22.412;2022-11-27T00:08:37;14.20;44.30
40868;DHT22;26586;50.708;22.412;2022-11-27T00:11:09;14.20;43.80
40868;DHT22;26586;50.708;22.412;2022-11-27T00:13:35;14.20;43.50
40868;DHT22;26586;50.708;22.412;2022-11-27T00:16:03;14.20;44.30
40868;DHT22;26586;50.708;22.412;2022-11-27T00:18:29;14.20;45.30
40868;DHT22;26586;50.708;22.412;2022-11-27T00:21:02;14.20;46.00
40868;DHT22;26586;50.708;22.412;2022-11-27T00:23:28;14.20;47.40
40868;DHT22;26586;50.708;22.412;2022-11-27T00:25:55;14.20;45.40
40868;DHT22;26586;50.708;22.412;2022-11-27T00:28:21;14.20;46.80
40868;DHT22;26586;50.708;22.412;2022-11-27T00:30:47;14.20;43.80
40868;DHT22;26586;50.708;22.412;2022-11-27T00:33:13;14.10;44.00
40868;DHT22;26586;50.708;22.412;2022-11-27T00:35:40;14.10;43.00
40868;DHT22;26586;50.708;22.412;2022-11-27T00:38:07;14.10;42.80
40868;DHT22;26586;50.708;22.412;2022-11-27T00:40:33;14.10;44.60
40868;DHT22;26586;50.708;22.412;2022-11-27T00:42:59;14.00;43.00
40868;DHT22;26586;50.708;22.412;2022-11-27T00:45:27;14.00;42.80
40868;DHT22;26586;50.708;22.412;2022-11-27T00:47:53;14.00;44.10
40868;DHT22;26586;50.708;22.412;2022-11-27T00:50:19;14.00;43.20
40868;DHT22;26586;50.708;22.412;2022-11-27T00:52:45;14.00;43.00
40868;DHT22;26586;50.708;22.412;2022-11-27T00:55:12;14.00;43.30
40868;DHT22;26586;50.708;22.412;2022-11-27T00:57:38;13.90;43.10
40868;DHT22;26586;50.708;22.412;2022-11-27T01:00:05;13.90;42.80
40868;DHT22;26586;50.708;22.412;2022-11-27T01:02:32;13.90;42.50
40868;DHT22;26586;50.708;22.412;2022-11-27T01:04:58;13.90;42.60
40868;DHT22;26586;50.708;22.412;2022-11-27T01:07:25;13.80;42.70
40868;DHT22;26586;50.708;22.412;2022-11-27T01:09:51;13.80;42.50
40868;DHT22;26586;50.708;22.412;2022-11-27T01:12:17;13.80;42.80
40868;DHT22;26586;50.708;22.412;2022-11-27T01:14:44;13.70;42.80
40868;DHT22;26586;50.708;22.412;2022-11-27T01:17:10;13.70;43.50
40868;DHT22;26586;50.708;22.412;2022-11-27T01:19:36;13.70;43.40
40868;DHT22;26586;50.708;22.412;2022-11-27T01:22:02;13.70;43.10
40868;DHT22;26586;50.708;22.412;2022-11-27T01:24:29;13.70;43.40
40868;DHT22;26586;50.708;22.412;2022-11-27T01:26:55;13.60;43.30
40868;DHT22;26586;50.708;22.412;2022-11-27T01:29:21;13.70;43.70
40868;DHT22;26586;50.708;22.412;2022-11-27T01:31:47;13.60;43.80
40868;DHT22;26586;50.708;22.412;2022-11-27T01:34:16;13.60;43.70
40868;DHT22;26586;50.708;22.412;2022-11-27T01:36:43;13.60;43.60
40868;DHT22;26586;50.708;22.412;2022-11-27T01:39:19;13.60;43.50
40868;DHT22;26586;50.708;22.412;2022-11-27T01:41:47;13.60;43.60
40868;DHT22;26586;50.708;22.412;2022-11-27T01:46:59;13.60;43.90
40868;DHT22;26586;50.708;22.412;2022-11-27T01:49:29;13.60;44.00
40868;DHT22;26586;50.708;22.412;2022-11-27T01:52:00;13.60;44.50
40868;DHT22;26586;50.708;22.412;2022-11-27T01:54:36;13.60;43.90
40868;DHT22;26586;50.708;22.412;2022-11-27T01:57:07;13.50;43.70
40868;DHT22;26586;50.708;22.412;2022-11-27T01:59:35;13.50;43.70
40868;DHT22;26586;50.708;22.412;2022-11-27T02:02:02;13.50;43.80
40868;DHT22;26586;50.708;22.412;2022-11-27T02:04:29;13.50;43.80
40868;DHT22;26586;50.708;22.412;2022-11-27T02:06:58;13.50;43.60
40868;DHT22;26586;50.708;22.412;2022-11-27T02:09:26;13.40;43.40
40868;DHT22;26586;50.708;22.412;2022-11-27T02:15:19;13.40;44.00
40868;DHT22;26586;50.708;22.412;2022-11-27T02:18:08;13.40;43.80
40868;DHT22;26586;50.708;22.412;2022-11-27T02:26:55;13.40;44.00
40868;DHT22;26586;50.708;22.412;2022-11-27T02:29:11;13.40;43.80
40868;DHT22;26586;50.708;22.412;2022-11-27T02:37:05;13.30;43.90
40868;DHT22;26586;50.708;22.412;2022-11-27T02:39:46;13.30;43.90
40868;DHT22;26586;50.708;22.412;2022-11-27T02:42:18;13.30;43.80
40868;DHT22;26586;50.708;22.412;2022-11-27T02:44:52;13.30;43.90
40868;DHT22;26586;50.708;22.412;2022-11-27T02:47:20;13.30;43.70
40868;DHT22;26586;50.708;22.412;2022-11-27T02:49:48;13.20;43.80
40868;DHT22;26586;50.708;22.412;2022-11-27T02:52:16;13.20;43.90
40868;DHT22;26586;50.708;22.412;2022-11-27T02:54:47;13.20;44.50
40868;DHT22;26586;50.708;22.412;2022-11-27T02:57:15;13.20;44.60
40868;DHT22;26586;50.708;22.412;2022-11-27T02:59:43;13.20;44.50
40868;DHT22;26586;50.708;22.412;2022-11-27T03:02:16;13.20;44.20
40868;DHT22;26586;50.708;22.412;2022-11-27T03:04:53;13.20;44.20
40868;DHT22;26586;50.708;22.412;2022-11-27T03:07:28;13.20;44.20
40868;DHT22;26586;50.708;22.412;2022-11-27T03:10:01;13.20;44.40
40868;DHT22;26586;50.708;22.412;2022-11-27T03:12:28;13.10;44.70
40868;DHT22;26586;50.708;22.412;2022-11-27T03:14:55;13.20;44.60
40868;DHT22;26586;50.708;22.412;2022-11-27T03:22:55;13.20;44.70
40868;DHT22;26586;50.708;22.412;2022-11-27T03:25:22;13.10;44.40
40868;DHT22;26586;50.708;22.412;2022-11-27T03:27:56;13.10;44.10
40868;DHT22;26586;50.708;22.412;2022-11-27T03:30:23;13.10;44.10
40868;DHT22;26586;50.708;22.412;2022-11-27T03:32:50;13.10;44.00
40868;DHT22;26586;50.708;22.412;2022-11-27T03:35:19;13.10;44.50
40868;DHT22;26586;50.708;22.412;2022-11-27T03:37:47;13.10;44.40
40868;DHT22;26586;50.708;22.412;2022-11-27T03:40:13;13.00;44.60
40868;DHT22;26586;50.708;22.412;2022-11-27T03:42:47;13.10;44.40
40868;DHT22;26586;50.708;22.412;2022-11-27T03:48:34;13.00;44.40
40868;DHT22;26586;50.708;22.412;2022-11-27T03:51:37;13.00;44.80
40868;DHT22;26586;50.708;22.412;2022-11-27T03:57:04;13.00;45.30
40868;DHT22;26586;50.708;22.412;2022-11-27T03:59:30;13.00;45.60
40868;DHT22;26586;50.708;22.412;2022-11-27T04:01:57;13.00;45.10
40868;DHT22;26586;50.708;22.412;2022-11-27T04:04:23;13.00;45.70
40868;DHT22;26586;50.708;22.412;2022-11-27T04:06:49;13.00;45.70
40868;DHT22;26586;50.708;22.412;2022-11-27T04:09:16;13.00;45.20
40868;DHT22;26586;50.708;22.412;2022-11-27T04:11:42;13.00;45.20
40868;DHT22;26586;50.708;22.412;2022-11-27T04:14:09;13.00;45.20
40868;DHT22;26586;50.708;22.412;2022-11-27T04:16:35;13.00;45.10
40868;DHT22;26586;50.708;22.412;2022-11-27T04:19:01;13.00;45.00
40868;DHT22;26586;50.708;22.412;2022-11-27T04:21:27;13.00;45.20
40868;DHT22;26586;50.708;22.412;2022-11-27T04:23:53;13.00;45.40
40868;DHT22;26586;50.708;22.412;2022-11-27T04:26:20;13.00;45.30
40868;DHT22;26586;50.708;22.412;2022-11-27T04:28:46;13.00;45.40
40868;DHT22;26586;50.708;22.412;2022-11-27T04:31:12;12.90;45.50
40868;DHT22;26586;50.708;22.412;2022-11-27T04:33:38;13.00;45.40
40868;DHT22;26586;50.708;22.412;2022-11-27T04:36:05;13.00;45.10
40868;DHT22;26586;50.708;22.412;2022-11-27T04:38:31;12.90;45.10
40868;DHT22;26586;50.708;22.412;2022-11-27T04:40:57;12.90;45.30
40868;DHT22;26586;50.708;22.412;2022-11-27T04:43:24;12.90;45.20
40868;DHT22;26586;50.708;22.412;2022-11-27T04:45:50;12.90;45.20
40868;DHT22;26586;50.708;22.412;2022-11-27T04:48:16;12.90;45.00
40868;DHT22;26586;50.708;22.412;2022-11-27T04:50:42;12.90;46.10
40868;DHT22;26586;50.708;22.412;2022-11-27T04:53:09;12.90;45.70
40868;DHT22;26586;50.708;22.412;2022-11-27T04:55:35;12.90;47.80
40868;DHT22;26586;50.708;22.412;2022-11-27T04:58:01;12.90;45.80
40868;DHT22;26586;50.708;22.412;2022-11-27T05:00:27;12.90;45.60
40868;DHT22;26586;50.708;22.412;2022-11-27T05:02:54;12.90;45.50
40868;DHT22;26586;50.708;22.412;2022-11-27T05:05:20;12.90;46.00
40868;DHT22;26586;50.708;22.412;2022-11-27T05:07:46;12.90;45.70
40868;DHT22;26586;50.708;22.412;2022-11-27T05:10:13;12.90;47.10
40868;DHT22;26586;50.708;22.412;2022-11-27T05:12:39;12.90;47.50
40868;DHT22;26586;50.708;22.412;2022-11-27T05:15:06;12.90;45.90
40868;DHT22;26586;50.708;22.412;2022-11-27T05:17:32;12.90;46.10
40868;DHT22;26586;50.708;22.412;2022-11-27T05:19:58;12.90;45.70
40868;DHT22;26586;50.708;22.412;2022-11-27T05:22:25;12.90;45.70
40868;DHT22;26586;50.708;22.412;2022-11-27T05:24:51;12.90;46.20
40868;DHT22;26586;50.708;22.412;2022-11-27T05:27:17;12.90;46.10
40868;DHT22;26586;50.708;22.412;2022-11-27T05:29:43;12.90;46.00
40868;DHT22;26586;50.708;22.412;2022-11-27T05:32:09;13.00;46.60
40868;DHT22;26586;50.708;22.412;2022-11-27T05:34:36;12.90;46.90
40868;DHT22;26586;50.708;22.412;2022-11-27T05:37:02;12.90;46.50
40868;DHT22;26586;50.708;22.412;2022-11-27T05:39:28;13.00;46.40
40868;DHT22;26586;50.708;22.412;2022-11-27T05:41:55;13.00;46.40
40868;DHT22;26586;50.708;22.412;2022-11-27T05:44:21;13.00;46.70
40868;DHT22;26586;50.708;22.412;2022-11-27T05:46:47;13.10;46.20
40868;DHT22;26586;50.708;22.412;2022-11-27T05:49:14;13.10;47.10
40868;DHT22;26586;50.708;22.412;2022-11-27T05:51:41;13.10;48.00
40868;DHT22;26586;50.708;22.412;2022-11-27T05:54:08;13.20;48.70
40868;DHT22;26586;50.708;22.412;2022-11-27T05:56:34;13.20;47.80
40868;DHT22;26586;50.708;22.412;2022-11-27T05:59:00;13.20;48.60
40868;DHT22;26586;50.708;22.412;2022-11-27T06:01:27;13.30;51.50
40868;DHT22;26586;50.708;22.412;2022-11-27T06:03:53;13.30;49.00
40868;DHT22;26586;50.708;22.412;2022-11-27T06:06:20;13.30;49.00
40868;DHT22;26586;50.708;22.412;2022-11-27T06:08:46;13.40;48.60
40868;DHT22;26586;50.708;22.412;2022-11-27T06:11:16;13.40;48.00
40868;DHT22;26586;50.708;22.412;2022-11-27T06:13:44;13.40;48.40
40868;DHT22;26586;50.708;22.412;2022-11-27T06:16:14;13.50;49.40
40868;DHT22;26586;50.708;22.412;2022-11-27T06:18:40;13.50;48.70
40868;DHT22;26586;50.708;22.412;2022-11-27T06:21:08;13.50;52.60
40868;DHT22;26586;50.708;22.412;2022-11-27T06:23:35;13.50;49.40
40868;DHT22;26586;50.708;22.412;2022-11-27T06:26:23;13.60;48.20
40868;DHT22;26586;50.708;22.412;2022-11-27T06:28:50;13.60;47.90
40868;DHT22;26586;50.708;22.412;2022-11-27T06:31:19;13.60;51.00
40868;DHT22;26586;50.708;22.412;2022-11-27T06:33:47;13.70;51.60
40868;DHT22;26586;50.708;22.412;2022-11-27T06:36:14;13.70;52.40
40868;DHT22;26586;50.708;22.412;2022-11-27T06:38:41;13.70;49.80
40868;DHT22;26586;50.708;22.412;2022-11-27T06:41:14;13.70;50.60
40868;DHT22;26586;50.708;22.412;2022-11-27T06:43:40;13.80;52.40
40868;DHT22;26586;50.708;22.412;2022-11-27T06:46:12;13.80;51.50
40868;DHT22;26586;50.708;22.412;2022-11-27T06:48:41;13.90;52.80
40868;DHT22;26586;50.708;22.412;2022-11-27T06:51:09;13.90;51.60
40868;DHT22;26586;50.708;22.412;2022-11-27T06:53:36;13.90;52.10
40868;DHT22;26586;50.708;22.412;2022-11-27T06:56:09;14.00;50.50
40868;DHT22;26586;50.708;22.412;2022-11-27T06:58:36;14.00;51.10
40868;DHT22;26586;50.708;22.412;2022-11-27T07:01:05;14.00;49.40
40868;DHT22;26586;50.708;22.412;2022-11-27T07:03:32;14.10;50.50
40868;DHT22;26586;50.708;22.412;2022-11-27T07:06:00;14.10;50.50
40868;DHT22;26586;50.708;22.412;2022-11-27T07:08:26;14.10;49.30
40868;DHT22;26586;50.708;22.412;2022-11-27T07:10:53;14.10;49.00
40868;DHT22;26586;50.708;22.412;2022-11-27T07:13:19;14.10;47.90
40868;DHT22;26586;50.708;22.412;2022-11-27T07:15:45;14.20;50.30
40868;DHT22;26586;50.708;22.412;2022-11-27T07:18:11;14.20;47.80
40868;DHT22;26586;50.708;22.412;2022-11-27T07:20:37;14.20;48.80
40868;DHT22;26586;50.708;22.412;2022-11-27T07:23:04;14.20;48.50
40868;DHT22;26586;50.708;22.412;2022-11-27T07:25:30;14.20;49.70
40868;DHT22;26586;50.708;22.412;2022-11-27T07:27:56;14.20;48.90
40868;DHT22;26586;50.708;22.412;2022-11-27T07:30:22;14.20;47.50
40868;DHT22;26586;50.708;22.412;2022-11-27T07:32:49;14.30;48.10
40868;DHT22;26586;50.708;22.412;2022-11-27T07:35:15;14.20;49.00
40868;DHT22;26586;50.708;22.412;2022-11-27T07:37:41;14.30;49.20
40868;DHT22;26586;50.708;22.412;2022-11-27T07:40:08;14.30;52.30
40868;DHT22;26586;50.708;22.412;2022-11-27T07:42:34;14.30;51.00
40868;DHT22;26586;50.708;22.412;2022-11-27T07:45:00;14.40;50.40
40868;DHT22;26586;50.708;22.412;2022-11-27T07:47:28;14.40;47.50
40868;DHT22;26586;50.708;22.412;2022-11-27T07:49:55;14.30;42.00
40868;DHT22;26586;50.708;22.412;2022-11-27T07:52:23;14.30;41.00
40868;DHT22;26586;50.708;22.412;2022-11-27T07:54:49;14.20;40.60
40868;DHT22;26586;50.708;22.412;2022-11-27T07:57:15;14.10;40.70
40868;DHT22;26586;50.708;22.412;2022-11-27T07:59:42;13.90;40.60
40868;DHT22;26586;50.708;22.412;2022-11-27T08:02:11;13.90;40.60
40868;DHT22;26586;50.708;22.412;2022-11-27T08:04:38;13.80;40.80
40868;DHT22;26586;50.708;22.412;2022-11-27T08:07:04;13.70;40.90
40868;DHT22;26586;50.708;22.412;2022-11-27T08:09:31;13.70;41.00
40868;DHT22;26586;50.708;22.412;2022-11-27T08:11:57;13.60;41.00
40868;DHT22;26586;50.708;22.412;2022-11-27T08:14:23;13.60;41.20
40868;DHT22;26586;50.708;22.412;2022-11-27T08:16:49;13.50;41.20
40868;DHT22;26586;50.708;22.412;2022-11-27T08:19:15;13.50;41.20
40868;DHT22;26586;50.708;22.412;2022-11-27T08:21:41;13.50;41.10
40868;DHT22;26586;50.708;22.412;2022-11-27T08:24:08;13.50;41.10
40868;DHT22;26586;50.708;22.412;2022-11-27T08:26:34;13.50;41.20
40868;DHT22;26586;50.708;22.412;2022-11-27T08:29:00;13.50;41.00
40868;DHT22;26586;50.708;22.412;2022-11-27T08:31:27;13.50;40.90
40868;DHT22;26586;50.708;22.412;2022-11-27T08:33:56;13.50;41.00
40868;DHT22;26586;50.708;22.412;2022-11-27T08:36:26;13.50;41.00
40868;DHT22;26586;50.708;22.412;2022-11-27T08:38:56;13.50;41.00
40868;DHT22;26586;50.708;22.412;2022-11-27T08:41:22;13.50;41.00
40868;DHT22;26586;50.708;22.412;2022-11-27T08:43:51;13.50;41.00
40868;DHT22;26586;50.708;22.412;2022-11-27T08:46:17;13.50;41.20
40868;DHT22;26586;50.708;22.412;2022-11-27T08:48:47;13.50;41.20
40868;DHT22;26586;50.708;22.412;2022-11-27T08:51:14;13.50;41.20
40868;DHT22;26586;50.708;22.412;2022-11-27T08:53:44;13.50;41.00
40868;DHT22;26586;50.708;22.412;2022-11-27T08:56:16;13.50;41.00
40868;DHT22;26586;50.708;22.412;2022-11-27T08:58:43;13.50;41.10
40868;DHT22;26586;50.708;22.412;2022-11-27T09:01:15;13.40;41.10
40868;DHT22;26586;50.708;22.412;2022-11-27T09:03:42;13.40;41.20
40868;DHT22;26586;50.708;22.412;2022-11-27T09:06:10;13.40;41.30
40868;DHT22;26586;50.708;22.412;2022-11-27T09:08:38;13.40;41.50
40868;DHT22;26586;50.708;22.412;2022-11-27T09:11:05;13.40;41.60
40868;DHT22;26586;50.708;22.412;2022-11-27T09:13:32;13.40;42.40
40868;DHT22;26586;50.708;22.412;2022-11-27T09:16:00;13.50;43.00
40868;DHT22;26586;50.708;22.412;2022-11-27T09:18:26;13.60;44.40
40868;DHT22;26586;50.708;22.412;2022-11-27T09:21:07;13.70;43.70
40868;DHT22;26586;50.708;22.412;2022-11-27T09:23:35;13.80;45.00
40868;DHT22;26586;50.708;22.412;2022-11-27T09:26:06;13.90;45.70
40868;DHT22;26586;50.708;22.412;2022-11-27T09:28:33;14.00;46.40
40868;DHT22;26586;50.708;22.412;2022-11-27T09:31:01;14.10;44.60
40868;DHT22;26586;50.708;22.412;2022-11-27T09:33:30;14.20;44.90
40868;DHT22;26586;50.708;22.412;2022-11-27T09:35:57;14.20;44.00
40868;DHT22;26586;50.708;22.412;2022-11-27T09:38:26;14.30;44.40
40868;DHT22;26586;50.708;22.412;2022-11-27T09:40:59;14.30;45.50
40868;DHT22;26586;50.708;22.412;2022-11-27T09:43:30;14.40;45.20
40868;DHT22;26586;50.708;22.412;2022-11-27T09:46:03;14.40;44.90
40868;DHT22;26586;50.708;22.412;2022-11-27T09:48:37;14.50;44.40
40868;DHT22;26586;50.708;22.412;2022-11-27T09:51:10;14.50;46.30
40868;DHT22;26586;50.708;22.412;2022-11-27T09:53:46;14.50;46.10
40868;DHT22;26586;50.708;22.412;2022-11-27T09:56:16;14.60;45.10
40868;DHT22;26586;50.708;22.412;2022-11-27T09:58:46;14.60;45.90
40868;DHT22;26586;50.708;22.412;2022-11-27T10:01:34;14.60;45.10
40868;DHT22;26586;50.708;22.412;2022-11-27T10:04:07;14.70;44.30
40868;DHT22;26586;50.708;22.412;2022-11-27T10:18:47;14.80;43.90
40868;DHT22;26586;50.708;22.412;2022-11-27T10:24:54;14.80;43.60
40868;DHT22;26586;50.708;22.412;2022-11-27T10:29:55;14.90;43.00
40868;DHT22;26586;50.708;22.412;2022-11-27T10:32:34;14.90;44.50
40868;DHT22;26586;50.708;22.412;2022-11-27T10:35:21;14.90;43.60
40868;DHT22;26586;50.708;22.412;2022-11-27T10:38:24;14.90;43.70
40868;DHT22;26586;50.708;22.412;2022-11-27T10:43:24;15.00;46.30
40868;DHT22;26586;50.708;22.412;2022-11-27T10:46:07;15.00;44.30
40868;DHT22;26586;50.708;22.412;2022-11-27T10:48:34;15.00;43.70
40868;DHT22;26586;50.708;22.412;2022-11-27T10:51:01;15.00;45.40
40868;DHT22;26586;50.708;22.412;2022-11-27T10:53:30;15.00;44.90
40868;DHT22;26586;50.708;22.412;2022-11-27T11:01:18;15.10;44.90
40868;DHT22;26586;50.708;22.412;2022-11-27T11:03:45;15.10;46.20
40868;DHT22;26586;50.708;22.412;2022-11-27T11:06:18;15.10;45.00
40868;DHT22;26586;50.708;22.412;2022-11-27T11:08:45;15.20;43.00
40868;DHT22;26586;50.708;22.412;2022-11-27T11:11:12;15.20;43.80
40868;DHT22;26586;50.708;22.412;2022-11-27T11:13:43;15.20;44.50
40868;DHT22;26586;50.708;22.412;2022-11-27T11:18:53;15.20;45.10
40868;DHT22;26586;50.708;22.412;2022-11-27T11:21:29;15.20;43.70
40868;DHT22;26586;50.708;22.412;2022-11-27T11:26:32;15.20;45.80
40868;DHT22;26586;50.708;22.412;2022-11-27T11:29:02;15.30;44.60
40868;DHT22;26586;50.708;22.412;2022-11-27T11:31:36;15.30;43.20
40868;DHT22;26586;50.708;22.412;2022-11-27T11:34:26;15.30;44.70
40868;DHT22;26586;50.708;22.412;2022-11-27T11:36:59;15.30;44.10
40868;DHT22;26586;50.708;22.412;2022-11-27T11:39:31;15.30;43.30
40868;DHT22;26586;50.708;22.412;2022-11-27T11:41:59;15.30;43.30
40868;DHT22;26586;50.708;22.412;2022-11-27T11:44:32;15.40;42.40
40868;DHT22;26586;50.708;22.412;2022-11-27T11:47:00;15.30;42.90
40868;DHT22;26586;50.708;22.412;2022-11-27T11:49:28;15.40;43.10
40868;DHT22;26586;50.708;22.412;2022-11-27T12:00:06;15.40;43.80
40868;DHT22;26586;50.708;22.412;2022-11-27T12:02:44;15.40;44.90
40868;DHT22;26586;50.708;22.412;2022-11-27T12:11:12;15.50;44.70
40868;DHT22;26586;50.708;22.412;2022-11-27T12:25:27;15.60;42.00
40868;DHT22;26586;50.708;22.412;2022-11-27T12:30:26;15.60;43.20
40868;DHT22;26586;50.708;22.412;2022-11-27T12:33:47;15.60;43.40
40868;DHT22;26586;50.708;22.412;2022-11-27T12:38:44;15.60;42.30
40868;DHT22;26586;50.708;22.412;2022-11-27T12:44:32;15.50;47.70
40868;DHT22;26586;50.708;22.412;2022-11-27T12:47:11;15.50;48.00
40868;DHT22;26586;50.708;22.412;2022-11-27T12:49:56;15.60;49.40
40868;DHT22;26586;50.708;22.412;2022-11-27T12:52:44;15.60;50.10
40868;DHT22;26586;50.708;22.412;2022-11-27T12:55:20;15.60;51.20
40868;DHT22;26586;50.708;22.412;2022-11-27T12:57:58;15.60;50.70
40868;DHT22;26586;50.708;22.412;2022-11-27T13:00:27;15.70;50.70
40868;DHT22;26586;50.708;22.412;2022-11-27T13:03:08;15.70;51.50
40868;DHT22;26586;50.708;22.412;2022-11-27T13:05:48;15.70;47.30
40868;DHT22;26586;50.708;22.412;2022-11-27T13:11:16;15.70;45.00
40868;DHT22;26586;50.708;22.412;2022-11-27T13:14:13;15.70;45.30
40868;DHT22;26586;50.708;22.412;2022-11-27T13:16:43;15.70;45.70
40868;DHT22;26586;50.708;22.412;2022-11-27T13:19:32;15.70;44.00
40868;DHT22;26586;50.708;22.412;2022-11-27T13:22:07;15.70;45.00
40868;DHT22;26586;50.708;22.412;2022-11-27T13:24:34;15.70;44.60
40868;DHT22;26586;50.708;22.412;2022-11-27T13:27:05;15.70;45.00
40868;DHT22;26586;50.708;22.412;2022-11-27T13:29:42;15.70;45.00
40868;DHT22;26586;50.708;22.412;2022-11-27T13:32:22;15.80;45.20
40868;DHT22;26586;50.708;22.412;2022-11-27T13:34:51;15.80;45.20
40868;DHT22;26586;50.708;22.412;2022-11-27T13:37:33;15.80;45.80
40868;DHT22;26586;50.708;22.412;2022-11-27T13:40:21;15.80;43.20
40868;DHT22;26586;50.708;22.412;2022-11-27T13:42:52;15.80;44.10
40868;DHT22;26586;50.708;22.412;2022-11-27T13:45:32;15.80;44.80
40868;DHT22;26586;50.708;22.412;2022-11-27T13:48:04;15.80;43.10
40868;DHT22;26586;50.708;22.412;2022-11-27T13:50:44;15.80;43.50
40868;DHT22;26586;50.708;22.412;2022-11-27T13:53:11;15.80;43.40
40868;DHT22;26586;50.708;22.412;2022-11-27T13:55:51;15.80;44.70
40868;DHT22;26586;50.708;22.412;2022-11-27T13:58:34;15.80;45.00
40868;DHT22;26586;50.708;22.412;2022-11-27T14:01:18;15.80;45.60
40868;DHT22;26586;50.708;22.412;2022-11-27T14:03:46;15.80;45.10
40868;DHT22;26586;50.708;22.412;2022-11-27T14:06:27;15.80;43.30
40868;DHT22;26586;50.708;22.412;2022-11-27T14:09:05;15.80;43.70
40868;DHT22;26586;50.708;22.412;2022-11-27T14:11:43;15.80;42.20
40868;DHT22;26586;50.708;22.412;2022-11-27T14:14:19;15.80;43.20
40868;DHT22;26586;50.708;22.412;2022-11-27T14:17:00;15.80;42.10
40868;DHT22;26586;50.708;22.412;2022-11-27T14:19:40;15.80;41.80
40868;DHT22;26586;50.708;22.412;2022-11-27T14:23:12;15.80;41.40
40868;DHT22;26586;50.708;22.412;2022-11-27T14:25:32;15.80;41.40
40868;DHT22;26586;50.708;22.412;2022-11-27T14:28:21;15.70;41.60
40868;DHT22;26586;50.708;22.412;2022-11-27T14:30:56;15.80;41.80
40868;DHT22;26586;50.708;22.412;2022-11-27T14:33:25;15.70;42.00
40868;DHT22;26586;50.708;22.412;2022-11-27T14:35:59;15.70;41.60
40868;DHT22;26586;50.708;22.412;2022-11-27T14:38:28;15.70;41.60
40868;DHT22;26586;50.708;22.412;2022-11-27T14:41:10;15.70;41.60
40868;DHT22;26586;50.708;22.412;2022-11-27T14:43:37;15.70;41.90
40868;DHT22;26586;50.708;22.412;2022-11-27T14:46:04;15.70;42.00
40868;DHT22;26586;50.708;22.412;2022-11-27T14:51:16;15.70;41.90
40868;DHT22;26586;50.708;22.412;2022-11-27T14:53:47;15.70;41.90
40868;DHT22;26586;50.708;22.412;2022-11-27T14:56:15;15.70;42.00
40868;DHT22;26586;50.708;22.412;2022-11-27T14:58:51;15.70;42.20
40868;DHT22;26586;50.708;22.412;2022-11-27T15:01:24;15.70;42.30
40868;DHT22;26586;50.708;22.412;2022-11-27T15:03:58;15.70;42.20
40868;DHT22;26586;50.708;22.412;2022-11-27T15:06:30;15.70;42.30
40868;DHT22;26586;50.708;22.412;2022-11-27T15:08:59;15.70;42.70
40868;DHT22;26586;50.708;22.412;2022-11-27T15:11:25;15.70;42.40
40868;DHT22;26586;50.708;22.412;2022-11-27T15:13:55;15.70;42.10
40868;DHT22;26586;50.708;22.412;2022-11-27T15:16:24;15.70;42.00
40868;DHT22;26586;50.708;22.412;2022-11-27T15:19:02;15.70;42.40
40868;DHT22;26586;50.708;22.412;2022-11-27T15:21:34;15.70;45.10
40868;DHT22;26586;50.708;22.412;2022-11-27T15:24:02;15.70;42.90
40868;DHT22;26586;50.708;22.412;2022-11-27T15:26:33;15.70;44.00
40868;DHT22;26586;50.708;22.412;2022-11-27T15:29:00;15.70;42.20
40868;DHT22;26586;50.708;22.412;2022-11-27T15:31:35;15.70;42.20
40868;DHT22;26586;50.708;22.412;2022-11-27T15:34:19;15.70;41.70
40868;DHT22;26586;50.708;22.412;2022-11-27T15:36:56;15.70;41.70
40868;DHT22;26586;50.708;22.412;2022-11-27T15:39:26;15.60;41.80
40868;DHT22;26586;50.708;22.412;2022-11-27T15:41:57;15.60;42.90
40868;DHT22;26586;50.708;22.412;2022-11-27T15:44:25;15.60;42.90
40868;DHT22;26586;50.708;22.412;2022-11-27T15:46:53;15.60;42.60
40868;DHT22;26586;50.708;22.412;2022-11-27T15:49:20;15.60;42.40
40868;DHT22;26586;50.708;22.412;2022-11-27T15:51:49;15.60;42.80
40868;DHT22;26586;50.708;22.412;2022-11-27T15:54:15;15.60;42.60
40868;DHT22;26586;50.708;22.412;2022-11-27T15:56:42;15.60;42.00
40868;DHT22;26586;50.708;22.412;2022-11-27T15:59:09;15.60;42.40
40868;DHT22;26586;50.708;22.412;2022-11-27T16:01:36;15.60;42.40
40868;DHT22;26586;50.708;22.412;2022-11-27T16:04:02;15.60;42.20
40868;DHT22;26586;50.708;22.412;2022-11-27T16:06:29;15.60;42.50
40868;DHT22;26586;50.708;22.412;2022-11-27T16:08:59;15.60;43.10
40868;DHT22;26586;50.708;22.412;2022-11-27T16:11:28;15.60;42.70
40868;DHT22;26586;50.708;22.412;2022-11-27T16:13:54;15.60;42.40
40868;DHT22;26586;50.708;22.412;2022-11-27T16:16:21;15.60;42.80
40868;DHT22;26586;50.708;22.412;2022-11-27T16:18:47;15.60;42.40
40868;DHT22;26586;50.708;22.412;2022-11-27T16:21:14;15.60;42.80
40868;DHT22;26586;50.708;22.412;2022-11-27T16:23:41;15.60;42.40
40868;DHT22;26586;50.708;22.412;2022-11-27T16:26:11;15.50;43.10
40868;DHT22;26586;50.708;22.412;2022-11-27T16:28:37;15.60;45.20
40868;DHT22;26586;50.708;22.412;2022-11-27T16:31:07;15.60;43.10
40868;DHT22;26586;50.708;22.412;2022-11-27T16:33:34;15.50;43.10
40868;DHT22;26586;50.708;22.412;2022-11-27T16:36:05;15.60;43.90
40868;DHT22;26586;50.708;22.412;2022-11-27T16:38:32;15.50;43.10
40868;DHT22;26586;50.708;22.412;2022-11-27T16:41:04;15.50;42.70
40868;DHT22;26586;50.708;22.412;2022-11-27T16:43:39;15.50;42.70
40868;DHT22;26586;50.708;22.412;2022-11-27T16:46:11;15.50;42.50
40868;DHT22;26586;50.708;22.412;2022-11-27T16:48:40;15.50;42.40
40868;DHT22;26586;50.708;22.412;2022-11-27T16:51:24;15.50;43.60
40868;DHT22;26586;50.708;22.412;2022-11-27T16:53:53;15.50;43.20
40868;DHT22;26586;50.708;22.412;2022-11-27T16:56:22;15.50;44.30
40868;DHT22;26586;50.708;22.412;2022-11-27T16:58:49;15.50;44.30
40868;DHT22;26586;50.708;22.412;2022-11-27T17:01:20;15.50;43.50
40868;DHT22;26586;50.708;22.412;2022-11-27T17:03:46;15.50;43.30
40868;DHT22;26586;50.708;22.412;2022-11-27T17:06:18;15.50;43.30
40868;DHT22;26586;50.708;22.412;2022-11-27T17:08:45;15.50;43.50
40868;DHT22;26586;50.708;22.412;2022-11-27T17:11:15;15.50;42.70
40868;DHT22;26586;50.708;22.412;2022-11-27T17:13:43;15.50;42.50